Time;durP1;ratioP1;P1;durP2;ratioP2;P2;SDS_P1;SDS_P2;PMS_P1;PMS_P2;Temp;Humidity;BMP_temperature;BMP_pressure;BME280_temperature;BME280_humidity;BME280_pressure;Samples;Min_cycle;Max_cycle;Signal;HPM_P1;HPM_P2
2021/01/02 00:06:31;;;;;;;9.57;3.65;;;23.50;47.30;;;;;;20944009;28;20029;-15
2021/01/02 00:17:09;;;;;;;5.32;4.38;;;23.10;47.50;;;;;;20951190;28;20400;-15
2021/01/02 00:27:32;;;;;;;5.90;3.63;;;22.90;48.20;;;;;;20931917;28;20059;-14
2021/01/02 00:37:40;;;;;;;7.22;4.25;;;22.60;48.60;;;;;;20966336;28;20378;-14
2021/01/02 00:47:43;;;;;;;8.52;4.70;;;22.40;49.00;;;;;;20917870;28;20028;-14
2021/01/02 00:57:49;;;;;;;5.15;3.58;;;22.10;49.70;;;;;;20923608;28;20053;-14
2021/01/02 01:07:54;;;;;;;9.48;4.57;;;22.10;50.20;;;;;;21001016;22;20149;-15
2021/01/02 01:18:23;;;;;;;9.40;5.15;;;21.50;50.30;;;;;;20997176;28;20052;-15
2021/01/02 01:28:25;;;;;;;9.90;5.10;;;21.40;49.70;;;;;;20996454;28;20029;-15
2021/01/02 01:38:28;;;;;;;8.95;5.95;;;21.30;49.30;;;;;;20994782;28;20112;-15
2021/01/02 01:48:40;;;;;;;11.15;8.00;;;21.30;48.80;;;;;;20994851;28;20017;-15
2021/01/02 01:59:11;;;;;;;8.88;6.88;;;21.20;48.60;;;;;;20994335;28;20055;-15
2021/01/02 02:09:20;;;;;;;10.85;7.15;;;21.00;48.30;;;;;;20990221;28;20111;-15
2021/01/02 02:19:53;;;;;;;10.35;8.68;;;20.90;48.10;;;;;;20988492;28;20058;-15
2021/01/02 02:29:57;;;;;;;10.55;7.45;;;20.70;47.90;;;;;;20973556;28;20029;-15
2021/01/02 02:39:57;;;;;;;9.27;7.20;;;20.60;48.00;;;;;;20986986;28;20029;-15
2021/01/02 02:49:59;;;;;;;10.80;7.88;;;20.50;48.20;;;;;;20985639;28;20032;-15
2021/01/02 02:59:59;;;;;;;11.27;8.50;;;20.40;48.30;;;;;;20985689;28;20020;-15
2021/01/02 03:10:00;;;;;;;9.60;7.80;;;20.40;47.90;;;;;;20967849;28;563111;-15
2021/01/02 03:20:01;;;;;;;8.83;7.87;;;20.30;47.80;;;;;;20987979;28;20504;-15
2021/01/02 03:30:05;;;;;;;9.68;7.75;;;20.30;47.60;;;;;;20971082;28;20535;-15
2021/01/02 03:40:07;;;;;;;8.15;6.88;;;20.20;47.60;;;;;;20986634;28;20043;-15
2021/01/02 03:50:08;;;;;;;9.63;8.20;;;20.10;48.30;;;;;;20986102;28;20028;-15
2021/01/02 04:00:09;;;;;;;7.82;7.00;;;20.10;47.70;;;;;;20985689;28;20032;-15
2021/01/02 04:10:10;;;;;;;10.30;8.18;;;20.00;47.90;;;;;;20980443;28;20071;-15
2021/01/02 04:20:11;;;;;;;8.80;7.68;;;20.00;48.10;;;;;;20980091;28;20028;-15
2021/01/02 04:30:12;;;;;;;9.13;7.45;;;19.90;48.10;;;;;;20986024;28;20549;-15
2021/01/02 04:40:13;;;;;;;8.95;7.20;;;19.80;48.10;;;;;;20984377;28;20099;-15
2021/01/02 04:50:14;;;;;;;7.78;6.25;;;19.80;48.00;;;;;;20983288;28;20024;-15
2021/01/02 05:00:16;;;;;;;9.75;7.53;;;19.70;48.00;;;;;;20982606;28;20024;-15
2021/01/02 05:10:16;;;;;;;8.43;6.97;;;19.70;48.10;;;;;;20986663;28;20492;-15
2021/01/02 05:20:18;;;;;;;8.20;6.82;;;19.60;48.00;;;;;;20997216;28;20027;-15
2021/01/02 05:30:27;;;;;;;8.75;7.07;;;19.60;48.20;;;;;;20996497;28;20016;-15
2021/01/02 05:40:45;;;;;;;8.48;7.40;;;19.60;47.90;;;;;;20996279;28;20115;-15
2021/01/02 05:50:50;;;;;;;8.77;7.13;;;19.50;47.60;;;;;;20996077;28;20066;-15
2021/01/02 06:01:03;;;;;;;9.57;7.60;;;19.50;47.60;;;;;;20994107;28;20133;-15
2021/01/02 06:11:23;;;;;;;8.45;6.65;;;19.50;47.40;;;;;;20993161;28;20409;-15
2021/01/02 06:21:24;;;;;;;10.52;7.50;;;19.40;47.20;;;;;;20991843;28;20020;-15
2021/01/02 06:31:24;;;;;;;9.52;8.25;;;19.30;47.20;;;;;;20991583;28;20098;-15
2021/01/02 06:41:28;;;;;;;9.75;8.30;;;19.30;47.20;;;;;;20990603;28;20056;-16
2021/01/02 06:51:30;;;;;;;9.70;7.65;;;19.30;47.20;;;;;;20989781;28;20060;-14
2021/01/02 07:01:30;;;;;;;8.52;7.60;;;19.30;47.00;;;;;;20989148;28;20120;-15
2021/01/02 07:11:43;;;;;;;8.85;7.47;;;19.30;47.00;;;;;;20992647;22;20075;-14
2021/01/02 07:21:44;;;;;;;9.50;7.22;;;19.20;47.00;;;;;;20988844;28;20020;-16
2021/01/02 07:31:46;;;;;;;8.32;6.53;;;19.60;46.40;;;;;;20988743;28;20028;-15
2021/01/02 07:41:52;;;;;;;7.55;5.80;;;20.00;45.50;;;;;;20988125;28;20480;-14
2021/01/02 07:51:52;;;;;;;7.22;5.95;;;20.50;44.20;;;;;;20987883;28;20024;-14
2021/01/02 08:01:55;;;;;;;9.03;6.17;;;21.00;43.20;;;;;;20986406;28;20025;-15
2021/01/02 08:11:57;;;;;;;7.45;5.35;;;21.50;42.30;;;;;;20986276;28;20573;-15
2021/01/02 08:21:59;;;;;;;6.45;4.50;;;21.80;41.80;;;;;;20988150;28;20032;-16
2021/01/02 08:32:23;;;;;;;6.53;5.20;;;22.00;41.30;;;;;;20993223;28;20029;-15
2021/01/02 08:42:34;;;;;;;7.50;5.25;;;22.30;41.00;;;;;;20999932;28;20033;-15
2021/01/02 08:52:35;;;;;;;8.23;5.03;;;22.50;40.50;;;;;;20980145;28;20037;-15
2021/01/02 09:02:36;;;;;;;4.65;3.95;;;22.80;40.10;;;;;;21009134;28;20024;-15
2021/01/02 09:12:37;;;;;;;4.80;4.03;;;23.00;40.00;;;;;;20978569;28;20035;-15
2021/01/02 09:22:51;;;;;;;8.38;4.15;;;23.30;39.90;;;;;;20983307;28;20041;-15
2021/01/02 09:32:51;;;;;;;7.40;4.30;;;23.20;39.90;;;;;;21006365;28;20060;-15
2021/01/02 09:42:52;;;;;;;8.38;3.72;;;23.10;40.40;;;;;;21015377;28;20119;-15
2021/01/02 09:52:52;;;;;;;13.88;4.93;;;22.90;41.30;;;;;;20983896;28;20082;-15
2021/01/02 10:02:57;;;;;;;13.68;4.65;;;23.10;42.00;;;;;;20993392;28;20107;-15
2021/01/02 10:12:58;;;;;;;27.83;8.00;;;23.00;42.50;;;;;;20994641;28;20029;-15
2021/01/02 10:22:59;;;;;;;26.52;9.23;;;23.00;43.80;;;;;;20989780;28;20029;-15
2021/01/02 10:32:59;;;;;;;18.50;8.32;;;23.10;44.30;;;;;;20985537;28;20401;-15
2021/01/02 10:43:00;;;;;;;20.15;7.90;;;23.40;43.90;;;;;;20956052;28;20400;-15
2021/01/02 10:53:00;;;;;;;18.20;6.97;;;23.50;43.50;;;;;;20962657;28;20094;-15
2021/01/02 11:03:01;;;;;;;20.92;6.55;;;23.50;43.50;;;;;;20951198;28;20037;-15
2021/01/02 11:13:01;;;;;;;16.98;6.68;;;23.30;43.20;;;;;;20950228;28;20063;-15
2021/01/02 11:23:02;;;;;;;20.27;6.53;;;23.40;42.60;;;;;;20975445;28;20039;-15
2021/01/02 11:33:03;;;;;;;17.05;6.40;;;23.20;42.40;;;;;;20988009;28;20107;-15
2021/01/02 11:43:03;;;;;;;12.38;5.93;;;23.20;42.00;;;;;;20966661;28;20476;-15
2021/01/02 11:53:04;;;;;;;17.10;5.80;;;23.10;41.90;;;;;;20963687;28;20095;-15
2021/01/02 12:03:05;;;;;;;11.77;5.60;;;23.30;41.70;;;;;;20974147;28;20131;-15
2021/01/02 12:13:05;;;;;;;11.77;5.57;;;23.50;40.00;;;;;;20983253;28;20048;-15
2021/01/02 12:23:06;;;;;;;15.57;7.78;;;23.40;39.90;;;;;;20959382;28;20040;-15
2021/01/02 12:33:06;;;;;;;8.73;5.60;;;23.50;39.30;;;;;;20973951;28;20104;-15
2021/01/02 12:43:07;;;;;;;12.68;4.88;;;23.60;38.60;;;;;;20957737;28;20028;-14
2021/01/02 12:53:07;;;;;;;13.73;6.28;;;23.50;38.70;;;;;;20987672;28;20033;-16
2021/01/02 13:03:08;;;;;;;9.57;5.30;;;23.70;37.90;;;;;;20993155;28;20476;-16
2021/01/02 13:13:08;;;;;;;12.98;6.07;;;23.50;37.80;;;;;;20986373;28;20036;-16
2021/01/02 13:23:09;;;;;;;9.65;4.90;;;23.60;37.40;;;;;;20901728;28;20402;-16
2021/01/02 13:33:09;;;;;;;8.98;4.35;;;23.70;37.50;;;;;;20906023;28;20096;-16
2021/01/02 13:43:10;;;;;;;15.45;4.85;;;23.60;37.50;;;;;;20923646;28;20029;-16
2021/01/02 13:53:10;;;;;;;11.98;4.38;;;23.70;37.80;;;;;;20997134;28;20527;-15
2021/01/02 14:03:11;;;;;;;36.88;5.65;;;23.80;38.10;;;;;;20950802;28;20451;-15
2021/01/02 14:13:11;;;;;;;24.00;5.72;;;23.80;38.60;;;;;;20935295;28;20040;-16
2021/01/02 14:23:12;;;;;;;29.58;5.72;;;23.60;39.40;;;;;;20943692;28;20074;-16
2021/01/02 14:33:12;;;;;;;22.67;4.90;;;23.60;39.70;;;;;;20993460;28;20032;-15
2021/01/02 14:43:13;;;;;;;22.50;5.75;;;23.60;39.60;;;;;;20991698;28;20024;-15
2021/01/02 14:53:13;;;;;;;15.87;4.63;;;23.90;39.30;;;;;;20977223;28;20033;-15
2021/01/02 15:03:14;;;;;;;20.27;5.93;;;24.10;39.10;;;;;;20979694;28;20408;-16
2021/01/02 15:13:15;;;;;;;17.38;4.68;;;24.00;39.90;;;;;;20990100;28;20032;-16
2021/01/02 15:23:17;;;;;;;18.42;5.25;;;23.90;40.20;;;;;;20948299;28;20029;-17
2021/01/02 15:33:17;;;;;;;28.85;5.75;;;23.80;40.20;;;;;;20973166;28;20036;-15
2021/01/02 15:43:18;;;;;;;18.65;6.35;;;23.50;40.50;;;;;;20970203;28;20544;-16
2021/01/02 15:53:19;;;;;;;15.52;4.95;;;23.40;40.50;;;;;;20901745;28;20021;-16
2021/01/02 16:03:19;;;;;;;15.57;5.60;;;23.30;40.50;;;;;;20977905;28;20477;-15
2021/01/02 16:13:20;;;;;;;26.80;6.90;;;23.20;40.10;;;;;;20986635;28;20064;-15
2021/01/02 16:23:20;;;;;;;13.88;7.00;;;23.20;39.20;;;;;;20972084;28;20052;-15
2021/01/02 16:33:21;;;;;;;16.30;6.60;;;23.10;39.10;;;;;;20987799;28;20032;-15
2021/01/02 16:43:23;;;;;;;19.65;8.20;;;23.20;38.60;;;;;;20991535;28;20489;-15
2021/01/02 16:53:24;;;;;;;17.23;6.30;;;23.40;37.40;;;;;;20993043;28;20096;-16
2021/01/02 17:03:24;;;;;;;15.88;5.88;;;23.30;37.10;;;;;;20953757;28;20487;-15
2021/01/02 17:13:25;;;;;;;12.45;5.45;;;23.60;35.90;;;;;;20980146;28;20028;-16
2021/01/02 17:23:25;;;;;;;16.08;5.63;;;23.80;35.50;;;;;;20967685;28;20150;-16
2021/01/02 17:33:26;;;;;;;11.83;6.23;;;23.70;35.70;;;;;;20999704;28;20023;-15
2021/01/02 17:43:27;;;;;;;14.10;5.30;;;24.10;36.10;;;;;;20978942;28;20056;-15
2021/01/02 17:53:27;;;;;;;14.43;4.85;;;24.20;35.80;;;;;;20958082;28;20116;-15
2021/01/02 18:03:28;;;;;;;8.65;4.82;;;24.20;36.20;;;;;;20930242;28;20025;-15
2021/01/02 18:13:28;;;;;;;11.98;4.90;;;24.00;36.60;;;;;;20921315;28;20020;-16
2021/01/02 18:23:29;;;;;;;10.98;5.22;;;23.90;36.80;;;;;;20980146;28;20032;-15
2021/01/02 18:33:29;;;;;;;10.68;4.85;;;23.60;37.30;;;;;;20994034;28;20024;-15
2021/01/02 18:43:30;;;;;;;20.13;5.35;;;23.40;37.70;;;;;;20977872;28;20166;-16
2021/01/02 18:53:30;;;;;;;15.63;4.78;;;23.60;38.90;;;;;;20993319;28;20431;-15
2021/01/02 19:03:31;;;;;;;9.68;4.50;;;23.50;39.90;;;;;;20992985;28;20033;-15
2021/01/02 19:13:33;;;;;;;13.88;6.13;;;23.50;40.20;;;;;;20990663;28;20041;-16
2021/01/02 19:23:34;;;;;;;15.40;5.22;;;23.30;40.50;;;;;;20965477;28;20502;-15
2021/01/02 19:33:34;;;;;;;13.23;5.50;;;23.30;40.50;;;;;;20973807;28;20029;-15
2021/01/02 19:43:35;;;;;;;22.90;4.93;;;23.20;40.60;;;;;;20988254;28;20082;-16
2021/01/02 19:53:35;;;;;;;14.43;4.60;;;23.20;40.50;;;;;;20986699;28;20032;-15
2021/01/02 20:03:36;;;;;;;11.27;4.20;;;23.00;40.70;;;;;;20989676;28;20074;-14
2021/01/02 20:13:37;;;;;;;13.02;5.13;;;23.20;40.40;;;;;;20986425;28;20078;-15
2021/01/02 20:23:37;;;;;;;13.05;5.60;;;23.10;40.40;;;;;;20961007;28;20037;-16
2021/01/02 20:33:38;;;;;;;13.32;4.15;;;23.30;41.00;;;;;;20971694;28;20090;-15
2021/01/02 20:43:41;;;;;;;12.95;5.13;;;23.70;40.80;;;;;;20946455;28;20025;-15
2021/01/02 20:53:43;;;;;;;11.55;4.97;;;23.70;41.10;;;;;;20963010;28;20033;-15
2021/01/02 21:03:44;;;;;;;10.20;4.13;;;23.60;41.30;;;;;;20970435;28;20025;-16
2021/01/02 21:13:45;;;;;;;10.48;4.10;;;23.40;41.80;;;;;;20969347;28;20508;-16
2021/01/02 21:23:46;;;;;;;10.70;4.38;;;23.20;42.10;;;;;;20995375;28;20453;-15
2021/01/02 21:33:47;;;;;;;12.95;4.95;;;23.00;43.10;;;;;;20913500;28;20397;-15
2021/01/02 21:43:48;;;;;;;8.48;4.30;;;22.90;43.50;;;;;;20987960;28;20111;-15
2021/01/02 21:53:49;;;;;;;11.48;4.53;;;22.80;43.80;;;;;;21000417;28;20040;-16
2021/01/02 22:03:51;;;;;;;6.72;3.80;;;22.60;44.20;;;;;;20954872;28;20493;-15
2021/01/02 22:13:51;;;;;;;11.82;4.03;;;22.40;44.60;;;;;;20940816;28;20047;-16
2021/01/02 22:23:52;;;;;;;13.38;4.22;;;22.30;44.70;;;;;;20982744;28;20377;-14
2021/01/02 22:33:53;;;;;;;10.77;5.15;;;22.20;45.20;;;;;;20911958;28;20183;-15
2021/01/02 22:43:54;;;;;;;8.98;4.22;;;22.00;45.40;;;;;;20918152;28;20024;-15
2021/01/02 22:53:56;;;;;;;8.57;3.90;;;22.00;45.70;;;;;;20992801;28;20037;-15
2021/01/02 23:03:57;;;;;;;9.05;3.70;;;21.60;45.80;;;;;;20917151;28;20025;-15
2021/01/02 23:13:59;;;;;;;18.48;5.43;;;21.60;46.30;;;;;;20915998;28;20082;-15
2021/01/02 23:24:04;;;;;;;13.30;4.38;;;21.60;46.60;;;;;;20953498;28;20071;-15
2021/01/02 23:34:05;;;;;;;18.83;5.60;;;21.50;46.80;;;;;;20969351;28;20052;-16
2021/01/02 23:44:07;;;;;;;11.18;3.92;;;21.40;46.30;;;;;;20909662;28;20508;-16
2021/01/02 23:54:07;;;;;;;8.20;3.35;;;21.30;46.70;;;;;;20905973;28;20025;-15
